Skip Navigation LinksHome page > Weather > Current weather Skip Navigation Links

Current Weather

Fulton County, Rochester, Ind.

For information only: do not use for flight planning or navigation.
Latest weather
Observation time Monday, November 29, 2021 4:35 PM EST
Local time Monday, November 29, 2021 4:56 PM EST
Flight conditions Visual Meteorological Conditions
Winds
Wind direction South-Southeast (160°)
Wind speed 7 mph
Visibility 10 mi.
Sky condition
Ceiling unlimited
Sky clear
Temperature 41°F
Dewpoint 23°F
Altimeter 29.97 in.Hg
Derived measurements
Relative humidity 48%
Wind chill 36°F
Density altitude -406 ft.
Remarks
Fully automated report.
Automated weather observing station with precipitation discriminator.
METAR KRCR 292135Z AUTO 16006KT 10SM CLR 05/M05 A2997 RMK AO2

Settings

Location code

InnerDrive.Weather 4.0.6770.0 Release CLR 4.0.30319.42000
Copyright ©2018 Inner Drive Technology. All rights reserved. Portions Copyright ©1986-2018 David Braverman.

Find weather

Site navigation


Skip Navigation Links

Place info

Page info

PayPal - The safer, easier way to pay online!

Return home.

Copyright ©2021 Inner Drive Technology. Purveyors of fine, hand-crafted computer software. Page printed 2021-11-29T21:56:03 UTC.